Aérodrome :
LOGIN :

S'inscrire | Disclaimer

   EN    FR    IT 

 










Légende :    VFR   VFR Marginal   IFR   IFR Intensif   IFR Très Intensif
Visi : 
Plafond : 
>= 8 km
>= 3000ft
5 à 8 km
1000 à 3000 ft
1500m à 5 km
500 à 1000 ft
800 à 1500m
200 à 500 ft
< 800m
< 200 ft
Symboles :   Orages  Brouillard  Fortes neiges  Fortes précipitations  Vent > 20 kt
SIGMETs :   Divers  Orages  Givrage  Turbulence  Onde Orograph.  Cendres Volcan.







- Altitude de l'aérodrome : 13 ft
- Code IATA : LYX
- Voir les cartes d'approche


EGMD - Lydd

DERNIER METAR :
  • 300250Z AUTO 12014KT 9999 NCD 10/05 Q1008

METARs EXPIRÉS :
  • 300220Z AUTO 11015KT 9999 NCD 10/05 Q1008
  • 300150Z AUTO 11016KT 9999 NCD 10/05 Q1009
  • 300120Z AUTO 11017KT 9999 NCD 10/05 Q1009
  • 300050Z AUTO 11020KT 9999 NCD 10/05 Q1010
  • 300020Z AUTO 11022KT 9999 NCD 10/05 Q1010

TAF TAF EGMD
Valide du 30 à 03h jusqu'au 30 à 12h UTC


300201Z 3003/3012 11015KT 9999 FEW045
TEMPO 3003/3009 12018G28KT
ATIS : +44 1797 322 422
Pas de NOTAMs connus pour ce terrain.



MET'MAP, la Météo Aéronautique d'un coup d'oeil ! - Copyright ORBIFLY Décembre 2007 - Disclaimer

ORBIFLY MET'MAP TEAM :

Programmation & Développement : Alexandra Zaïnal
Conception & Développement : Baudouin d'Aumeries
Co-Programmation & Développement : Marc-Olivier Méhu
Soutien technique & logistique : Manuel Goepfert

Contact : metmap@orbifly.com




SOURCES & CREDITS :

   NOAA